createdAt,value
2023-05-04T00:00:36.611Z,3.90
2023-05-04T00:02:38.564Z,3.90
2023-05-04T00:04:41.873Z,4.10
2023-05-04T00:06:44.939Z,3.90
2023-05-04T00:08:47.650Z,4.10
2023-05-04T00:10:49.249Z,4.17
2023-05-04T00:12:51.177Z,4.50
2023-05-04T00:14:52.932Z,4.77
2023-05-04T00:16:54.814Z,3.83
2023-05-04T00:18:56.501Z,3.83
2023-05-04T00:20:58.374Z,3.93
2023-05-04T00:23:02.834Z,4.07
2023-05-04T00:25:06.811Z,4.20
2023-05-04T00:27:08.732Z,3.43
2023-05-04T00:29:10.310Z,4.27
2023-05-04T00:31:12.018Z,3.37
2023-05-04T00:33:13.772Z,3.90
2023-05-04T00:35:15.478Z,4.07
2023-05-04T00:37:18.720Z,4.30
2023-05-04T00:39:21.950Z,3.70
2023-05-04T00:41:23.627Z,4.27
2023-05-04T00:43:25.748Z,4.30
2023-05-04T00:45:29.255Z,4.63
2023-05-04T00:47:31.908Z,4.93
2023-05-04T00:49:34.549Z,4.63
2023-05-04T00:51:37.136Z,4.00
2023-05-04T00:53:39.200Z,4.40
2023-05-04T00:55:42.613Z,4.47
2023-05-04T00:57:44.622Z,4.13
2023-05-04T00:59:46.706Z,4.20
2023-05-04T01:01:55.226Z,4.17
2023-05-04T01:03:57.257Z,4.60
2023-05-04T01:06:08.273Z,4.33
2023-05-04T01:08:15.112Z,4.60
2023-05-04T01:10:22.627Z,4.73
2023-05-04T01:12:36.531Z,4.20
2023-05-04T01:14:39.586Z,4.23
2023-05-04T01:16:41.464Z,4.17
2023-05-04T01:18:43.107Z,3.70
2023-05-04T01:20:44.957Z,3.63
2023-05-04T01:22:48.429Z,4.40
2023-05-04T01:24:50.856Z,4.37
2023-05-04T01:26:56.551Z,5.07
2023-05-04T01:29:04.855Z,5.10
2023-05-04T01:31:09.425Z,4.10
2023-05-04T01:33:12.261Z,4.17
2023-05-04T01:35:14.128Z,4.33
2023-05-04T01:37:16.156Z,4.40
2023-05-04T01:39:19.456Z,4.80
2023-05-04T01:41:20.958Z,3.90
2023-05-04T01:43:22.909Z,3.90
2023-05-04T01:45:24.812Z,4.00
2023-05-04T01:47:27.088Z,5.10
2023-05-04T01:49:29.991Z,4.20
2023-05-04T01:51:31.622Z,4.17
2023-05-04T01:53:33.217Z,3.90
2023-05-04T01:55:36.390Z,4.53
2023-05-04T01:57:38.037Z,4.10
2023-05-04T01:59:39.779Z,4.17
2023-05-04T02:01:41.579Z,4.57
2023-05-04T02:03:43.518Z,5.23
2023-05-04T02:05:45.453Z,4.73
2023-05-04T02:07:47.148Z,4.37
2023-05-04T02:09:49.264Z,4.80
2023-05-04T02:11:53.463Z,5.43
2023-05-04T02:13:56.557Z,4.10
2023-05-04T02:15:58.221Z,4.77
2023-05-04T02:18:00.066Z,4.37
2023-05-04T02:20:01.857Z,4.83
2023-05-04T02:22:05.938Z,4.70
2023-05-04T02:24:07.715Z,5.70
2023-05-04T02:26:09.339Z,4.30
2023-05-04T02:28:12.329Z,5.10
2023-05-04T02:30:14.800Z,4.67
2023-05-04T02:32:19.861Z,4.30
2023-05-04T02:34:21.951Z,4.70
2023-05-04T02:36:23.580Z,4.60
2023-05-04T02:38:26.116Z,5.13
2023-05-04T02:40:28.024Z,5.20
2023-05-04T02:42:29.902Z,4.67
2023-05-04T02:44:33.166Z,5.10
2023-05-04T02:46:35.216Z,4.50
2023-05-04T02:48:38.293Z,5.00
2023-05-04T02:50:40.582Z,5.40
2023-05-04T02:52:42.517Z,5.60
2023-05-04T02:54:44.140Z,5.50
2023-05-04T02:56:46.040Z,5.70
2023-05-04T02:58:48.064Z,5.20
2023-05-04T03:00:55.269Z,5.00
2023-05-04T03:02:57.215Z,4.90
2023-05-04T03:05:01.761Z,6.80
2023-05-04T03:07:03.776Z,5.70
2023-05-04T03:09:05.520Z,6.53
2023-05-04T03:11:07.222Z,5.47
2023-05-04T03:13:08.939Z,5.90
2023-05-04T03:15:10.946Z,5.30
2023-05-04T03:17:15.551Z,5.30
2023-05-04T03:19:17.180Z,6.17
2023-05-04T03:21:19.104Z,4.97
2023-05-04T03:23:22.366Z,5.50
2023-05-04T03:25:23.997Z,6.07
2023-05-04T03:27:25.720Z,5.70
2023-05-04T03:29:29.954Z,5.70
2023-05-04T03:31:31.963Z,5.57
2023-05-04T03:33:37.348Z,5.20
2023-05-04T03:35:39.373Z,5.60
2023-05-04T03:37:41.041Z,5.80
2023-05-04T03:39:42.965Z,6.67
2023-05-04T03:41:45.200Z,5.33
2023-05-04T03:43:47.018Z,6.93
2023-05-04T03:45:48.607Z,6.23
2023-05-04T03:47:50.362Z,5.97
2023-05-04T03:49:53.589Z,5.70
2023-05-04T03:51:55.177Z,6.80
2023-05-04T03:53:59.393Z,6.33
2023-05-04T03:56:01.251Z,7.10
2023-05-04T03:58:03.326Z,5.77
2023-05-04T04:00:07.182Z,6.50
2023-05-04T04:02:09.009Z,5.90
2023-05-04T04:04:12.184Z,5.67
2023-05-04T04:06:15.331Z,6.57
2023-05-04T04:08:17.370Z,6.43
2023-05-04T04:10:19.197Z,6.30
2023-05-04T04:12:21.030Z,6.20
2023-05-04T04:14:23.233Z,5.67
2023-05-04T04:16:24.945Z,6.00
2023-05-04T04:18:26.669Z,6.50
2023-05-04T04:20:28.259Z,5.80
2023-05-04T04:22:33.304Z,6.20
2023-05-04T04:24:35.159Z,6.10
2023-05-04T04:26:36.873Z,6.13
2023-05-04T04:28:38.481Z,6.73
2023-05-04T04:30:40.313Z,6.30
2023-05-04T04:32:41.990Z,6.13
2023-05-04T04:34:43.916Z,7.40
2023-05-04T04:36:45.520Z,7.10
2023-05-04T04:38:48.686Z,7.70
2023-05-04T04:40:50.353Z,6.67
2023-05-04T04:42:52.443Z,6.90
2023-05-04T04:44:54.034Z,6.20
2023-05-04T04:46:55.995Z,7.20
2023-05-04T04:48:57.679Z,6.40
2023-05-04T04:50:59.689Z,6.90
2023-05-04T04:53:01.253Z,7.97
2023-05-04T04:55:04.794Z,7.00
2023-05-04T04:57:06.430Z,6.90
2023-05-04T04:59:09.958Z,6.70
2023-05-04T05:01:11.790Z,6.50
2023-05-04T05:03:16.324Z,6.40
2023-05-04T05:05:18.075Z,6.77
2023-05-04T05:07:19.836Z,6.90
2023-05-04T05:09:21.479Z,6.93
2023-05-04T05:11:24.429Z,7.30
2023-05-04T05:13:26.054Z,6.37
2023-05-04T05:15:27.586Z,7.03
2023-05-04T05:17:29.138Z,7.53
2023-05-04T05:19:30.988Z,7.13
2023-05-04T05:21:32.622Z,7.20
2023-05-04T05:23:34.295Z,7.37
2023-05-04T05:25:35.896Z,7.07
2023-05-04T05:27:38.821Z,7.30
2023-05-04T05:29:40.376Z,7.07
2023-05-04T05:31:41.946Z,7.50
2023-05-04T05:33:43.575Z,7.47
2023-05-04T05:35:45.168Z,6.67
2023-05-04T05:37:49.175Z,6.20
2023-05-04T05:39:50.809Z,6.30
2023-05-04T05:41:56.002Z,7.00
2023-05-04T05:43:59.071Z,7.53
2023-05-04T05:46:00.685Z,7.70
2023-05-04T05:48:02.503Z,7.13
2023-05-04T05:50:04.846Z,7.33
2023-05-04T05:52:06.938Z,7.60
2023-05-04T05:54:08.531Z,7.67
2023-05-04T05:56:10.087Z,6.97
2023-05-04T05:58:11.682Z,6.53
2023-05-04T06:00:16.528Z,7.40
2023-05-04T06:02:18.264Z,7.80
2023-05-04T06:04:20.030Z,7.13
2023-05-04T06:06:21.632Z,8.07
2023-05-04T06:08:23.286Z,8.20
2023-05-04T06:10:25.004Z,7.20
2023-05-04T06:12:26.591Z,6.90
2023-05-04T06:14:28.164Z,7.13
2023-05-04T06:16:31.150Z,7.20
2023-05-04T06:18:32.672Z,7.47
2023-05-04T06:20:34.368Z,7.00
2023-05-04T06:22:35.933Z,8.10
2023-05-04T06:24:37.493Z,7.90
2023-05-04T06:26:39.047Z,7.43
2023-05-04T06:28:40.619Z,7.77
2023-05-04T06:30:42.191Z,8.50
2023-05-04T06:32:45.245Z,8.40
2023-05-04T06:34:46.864Z,8.80
2023-05-04T06:36:48.423Z,7.30
2023-05-04T06:38:50.081Z,7.37
2023-05-04T06:40:51.712Z,8.20
2023-05-04T06:42:53.314Z,8.23
2023-05-04T06:44:55.004Z,6.87
2023-05-04T06:46:56.572Z,6.53
2023-05-04T06:48:59.474Z,7.30
2023-05-04T06:51:02.292Z,7.60
2023-05-04T06:53:07.105Z,7.27
2023-05-04T06:55:09.027Z,7.20
2023-05-04T06:57:10.812Z,6.93
2023-05-04T06:59:12.674Z,6.93
2023-05-04T07:03:16.250Z,7.97
2023-05-04T07:05:19.611Z,7.00
2023-05-04T07:07:21.277Z,7.13
2023-05-04T07:09:22.872Z,7.50
2023-05-04T07:11:24.669Z,6.97
2023-05-04T07:13:26.385Z,8.13
2023-05-04T07:15:28.246Z,8.00
2023-05-04T07:17:32.215Z,9.57
2023-05-04T07:19:34.348Z,9.30
2023-05-04T07:21:37.508Z,8.70
2023-05-04T07:23:39.300Z,8.63
2023-05-04T07:25:40.908Z,7.70
2023-05-04T07:27:42.553Z,8.23
2023-05-04T07:29:44.192Z,8.57
2023-05-04T07:31:45.826Z,8.07
2023-05-04T07:33:48.053Z,8.33
2023-05-04T07:35:49.797Z,8.70
2023-05-04T07:37:53.022Z,8.03
2023-05-04T07:39:54.664Z,8.20
2023-05-04T07:41:56.412Z,8.53
2023-05-04T07:43:58.175Z,8.40
2023-05-04T07:45:59.844Z,8.00
2023-05-04T07:48:01.501Z,7.40
2023-05-04T07:50:03.350Z,9.10
2023-05-04T07:52:05.770Z,7.27
2023-05-04T07:54:08.759Z,9.50
2023-05-04T07:56:11.566Z,8.50
2023-05-04T07:58:13.394Z,8.00
2023-05-04T08:00:15.820Z,8.70
2023-05-04T08:02:17.506Z,8.57
2023-05-04T08:04:19.587Z,8.30
2023-05-04T08:06:21.731Z,9.33
2023-05-04T08:08:23.570Z,7.87
2023-05-04T08:10:26.782Z,7.43
2023-05-04T08:12:28.388Z,8.40
2023-05-04T08:14:30.011Z,7.50
2023-05-04T08:16:31.658Z,8.33
2023-05-04T08:18:33.385Z,8.83
2023-05-04T08:20:35.084Z,8.30
2023-05-04T08:22:37.022Z,8.30
2023-05-04T08:24:38.808Z,8.13
2023-05-04T08:26:43.778Z,10.00
2023-05-04T08:28:47.079Z,8.17
2023-05-04T08:30:48.898Z,8.20
2023-05-04T08:32:50.522Z,7.93
2023-05-04T08:34:52.439Z,8.90
2023-05-04T08:36:54.054Z,8.03
2023-05-04T08:38:55.892Z,7.93
2023-05-04T08:40:57.665Z,9.10
2023-05-04T08:43:00.940Z,7.37
2023-05-04T08:45:02.837Z,8.20
2023-05-04T08:47:04.844Z,7.97
2023-05-04T08:49:09.010Z,7.60
2023-05-04T08:51:11.405Z,7.57
2023-05-04T08:53:13.129Z,6.83
2023-05-04T08:55:18.610Z,6.93
2023-05-04T08:57:22.611Z,5.97
2023-05-04T08:59:28.109Z,6.07
2023-05-04T09:01:31.287Z,6.53
2023-05-04T09:03:34.402Z,5.93
2023-05-04T09:05:36.995Z,5.43
2023-05-04T09:07:38.614Z,6.00
2023-05-04T09:09:40.641Z,5.93
2023-05-04T09:11:43.415Z,5.13
2023-05-04T09:13:45.043Z,5.77
2023-05-04T09:15:55.785Z,5.47
2023-05-04T09:17:58.628Z,5.47
2023-05-04T09:20:01.427Z,5.47
2023-05-04T09:22:13.574Z,5.70
2023-05-04T09:24:25.911Z,5.43
2023-05-04T09:26:28.802Z,5.17
2023-05-04T09:28:35.075Z,5.63
2023-05-04T09:30:36.780Z,5.80
2023-05-04T09:32:46.947Z,5.37
2023-05-04T09:34:50.011Z,5.03
2023-05-04T09:36:58.753Z,7.20
2023-05-04T09:39:11.198Z,5.07
2023-05-04T09:41:13.573Z,4.70
2023-05-04T09:43:15.256Z,9.33
2023-05-04T09:45:17.069Z,5.50
2023-05-04T09:47:18.898Z,4.83
2023-05-04T09:49:31.308Z,4.93
2023-05-04T09:51:32.947Z,4.67
2023-05-04T09:53:40.092Z,6.83
2023-05-04T09:55:45.221Z,4.90
2023-05-04T09:57:48.117Z,4.60
2023-05-04T09:59:50.468Z,4.80
2023-05-04T10:01:53.681Z,4.97
2023-05-04T10:03:58.664Z,5.20
2023-05-04T10:06:04.656Z,4.23
2023-05-04T10:08:08.213Z,4.73
2023-05-04T10:10:12.137Z,4.90
2023-05-04T10:12:13.813Z,5.10
2023-05-04T10:14:15.529Z,5.67
2023-05-04T10:16:27.414Z,4.70
2023-05-04T10:18:41.629Z,5.40
2023-05-04T10:21:06.605Z,5.00
2023-05-04T10:23:32.188Z,5.27
2023-05-04T10:25:59.106Z,5.03
2023-05-04T10:28:10.025Z,5.20
2023-05-04T10:30:14.980Z,4.47
2023-05-04T10:32:20.506Z,4.93
2023-05-04T10:34:29.457Z,5.80
2023-05-04T10:36:36.960Z,5.10
2023-05-04T10:38:39.668Z,5.17
2023-05-04T10:40:41.318Z,5.93
2023-05-04T10:42:43.404Z,6.30
2023-05-04T10:44:52.561Z,5.73
2023-05-04T10:47:00.342Z,6.00
2023-05-04T10:49:02.128Z,6.20
2023-05-04T10:51:03.943Z,6.23
2023-05-04T10:53:07.255Z,6.00
2023-05-04T10:55:09.061Z,5.80
2023-05-04T10:57:12.040Z,5.33
2023-05-04T10:59:13.729Z,5.57
2023-05-04T11:01:22.964Z,6.47
2023-05-04T11:03:25.194Z,6.33
2023-05-04T11:05:27.315Z,6.20
2023-05-04T11:07:35.937Z,6.20
2023-05-04T11:09:45.664Z,5.50
2023-05-04T11:11:48.342Z,5.30
2023-05-04T11:13:50.643Z,6.03
2023-05-04T11:15:52.435Z,5.33
2023-05-04T11:17:54.346Z,5.47
2023-05-04T11:19:56.234Z,5.27
2023-05-04T11:22:01.386Z,6.07
2023-05-04T11:24:06.447Z,5.73
2023-05-04T11:26:12.766Z,6.57
2023-05-04T11:28:14.806Z,5.67
2023-05-04T11:30:18.586Z,5.90
2023-05-04T11:32:20.325Z,6.10
2023-05-04T11:34:22.060Z,6.00
2023-05-04T11:36:30.482Z,6.10
2023-05-04T11:38:32.337Z,5.43
2023-05-04T11:40:35.431Z,6.13
2023-05-04T11:42:39.081Z,5.80
2023-05-04T11:44:40.963Z,6.50
2023-05-04T11:46:42.672Z,6.10
2023-05-04T11:48:44.828Z,5.53
2023-05-04T11:50:46.877Z,4.87
2023-05-04T11:52:49.190Z,5.97
2023-05-04T11:54:57.541Z,5.63
2023-05-04T11:57:04.010Z,5.83
2023-05-04T11:59:11.290Z,6.90
2023-05-04T12:01:15.898Z,6.60
2023-05-04T12:03:25.953Z,6.60
2023-05-04T12:05:31.901Z,6.10
2023-05-04T12:07:36.564Z,6.53
2023-05-04T12:09:44.382Z,7.00
2023-05-04T12:11:53.832Z,5.63
2023-05-04T12:14:03.237Z,5.57
2023-05-04T12:16:13.804Z,5.60
2023-05-04T12:18:30.518Z,6.17
2023-05-04T12:20:35.029Z,6.57
2023-05-04T12:22:36.891Z,6.10
2023-05-04T12:24:38.509Z,5.60
2023-05-04T12:26:43.306Z,5.53
2023-05-04T12:28:45.001Z,5.83
2023-05-04T12:30:46.820Z,6.67
2023-05-04T12:32:50.857Z,5.70
2023-05-04T12:34:52.462Z,5.60
2023-05-04T12:36:54.328Z,5.73
2023-05-04T12:38:55.992Z,6.33
2023-05-04T12:40:58.228Z,6.43
2023-05-04T12:43:01.550Z,5.53
2023-05-04T12:45:03.850Z,6.03
2023-05-04T12:47:05.980Z,5.50
2023-05-04T12:49:09.607Z,5.77
2023-05-04T12:51:11.387Z,6.30
2023-05-04T12:53:13.212Z,6.30
2023-05-04T12:55:14.995Z,5.13
2023-05-04T12:57:16.671Z,5.30
2023-05-04T12:59:18.407Z,4.90
2023-05-04T13:01:20.421Z,5.80
2023-05-04T13:03:22.270Z,5.50
2023-05-04T13:05:26.211Z,5.53
2023-05-04T13:07:27.784Z,5.83
2023-05-04T13:09:29.431Z,5.90
2023-05-04T13:11:31.186Z,6.03
2023-05-04T13:13:32.897Z,5.77
2023-05-04T13:15:34.621Z,6.20
2023-05-04T13:17:36.547Z,5.80
2023-05-04T13:19:38.357Z,5.77
2023-05-04T13:21:41.390Z,5.77
2023-05-04T13:23:43.030Z,6.30
2023-05-04T13:25:44.706Z,6.73
2023-05-04T13:27:46.294Z,6.00
2023-05-04T13:29:47.925Z,6.77
2023-05-04T13:31:50.347Z,5.40
2023-05-04T13:33:54.021Z,6.00
2023-05-04T13:35:55.570Z,5.50
2023-05-04T13:37:58.605Z,5.60
2023-05-04T13:40:00.339Z,6.13
2023-05-04T13:42:01.926Z,6.03
2023-05-04T13:44:03.553Z,5.50
2023-05-04T13:46:05.567Z,5.70
2023-05-04T13:48:07.394Z,5.63
2023-05-04T13:50:09.683Z,5.57
2023-05-04T13:52:11.458Z,4.93
2023-05-04T13:54:14.454Z,5.27
2023-05-04T13:56:16.093Z,5.20
2023-05-04T13:58:17.951Z,5.50
2023-05-04T14:00:20.378Z,5.30
2023-05-04T14:02:22.351Z,4.93
2023-05-04T14:04:24.410Z,5.67
2023-05-04T14:06:26.192Z,5.50
2023-05-04T14:08:27.830Z,5.57
2023-05-04T14:10:30.952Z,5.07
2023-05-04T14:12:32.560Z,5.00
2023-05-04T14:14:34.172Z,4.87
2023-05-04T14:16:37.463Z,4.90
2023-05-04T14:18:39.239Z,4.93
2023-05-04T14:20:40.867Z,5.40
2023-05-04T14:22:42.499Z,5.57
2023-05-04T14:24:44.199Z,5.30
2023-05-04T14:26:47.360Z,5.30
2023-05-04T14:28:48.956Z,5.90
2023-05-04T14:30:50.840Z,5.03
2023-05-04T14:32:54.053Z,5.13
2023-05-04T14:35:00.365Z,5.57
2023-05-04T14:37:02.054Z,5.67
2023-05-04T14:39:04.010Z,4.90
2023-05-04T14:41:06.271Z,5.00
2023-05-04T14:43:09.302Z,5.07
2023-05-04T14:45:11.831Z,4.90
2023-05-04T14:47:13.505Z,4.70
2023-05-04T14:49:21.713Z,5.60
2023-05-04T14:51:30.662Z,5.57
2023-05-04T14:53:32.630Z,5.20
2023-05-04T14:55:34.261Z,5.03
2023-05-04T14:57:35.877Z,4.70
2023-05-04T14:59:39.114Z,4.90
2023-05-04T15:01:40.833Z,5.53
2023-05-04T15:03:42.851Z,5.30
2023-05-04T15:05:44.947Z,5.43
2023-05-04T15:07:49.749Z,4.57
2023-05-04T15:09:54.545Z,4.77
2023-05-04T15:11:58.105Z,4.73
2023-05-04T15:13:59.875Z,5.00
2023-05-04T15:16:03.104Z,4.53
2023-05-04T15:18:05.156Z,5.00
2023-05-04T15:20:08.392Z,5.23
2023-05-04T15:22:10.366Z,5.23
2023-05-04T15:24:12.033Z,4.30
2023-05-04T15:26:13.716Z,4.73
2023-05-04T15:28:15.350Z,4.60
2023-05-04T15:30:17.777Z,5.57
2023-05-04T15:32:20.922Z,5.53
2023-05-04T15:34:22.569Z,5.03
2023-05-04T15:36:24.186Z,4.93
2023-05-04T15:38:26.114Z,4.80
2023-05-04T15:40:28.320Z,5.40
2023-05-04T15:42:33.114Z,4.87
2023-05-04T15:44:34.711Z,4.87
2023-05-04T15:46:36.433Z,5.07
2023-05-04T15:48:41.172Z,5.13
2023-05-04T15:50:42.831Z,4.87
2023-05-04T15:52:49.215Z,4.40
2023-05-04T15:54:50.941Z,4.93
2023-05-04T15:56:55.876Z,4.70
2023-05-04T15:58:57.509Z,5.23
2023-05-04T16:00:59.225Z,4.87
2023-05-04T16:03:00.980Z,4.63
2023-05-04T16:05:04.182Z,4.67
2023-05-04T16:07:06.026Z,4.20
2023-05-04T16:09:14.356Z,4.90
2023-05-04T16:11:16.138Z,5.50
2023-05-04T16:13:18.107Z,6.13
2023-05-04T16:15:19.970Z,4.80
2023-05-04T16:17:22.328Z,4.23
2023-05-04T16:19:24.192Z,4.50
2023-05-04T16:21:33.022Z,5.33
2023-05-04T16:23:34.648Z,4.80
2023-05-04T16:25:38.991Z,5.60
2023-05-04T16:27:44.097Z,5.13
2023-05-04T16:29:46.119Z,5.07
2023-05-04T16:31:47.941Z,4.80
2023-05-04T16:33:51.992Z,4.77
2023-05-04T16:35:53.951Z,6.40
2023-05-04T16:37:57.254Z,5.30
2023-05-04T16:39:59.002Z,4.67
2023-05-04T16:42:00.857Z,5.10
2023-05-04T16:44:02.560Z,4.80
2023-05-04T16:46:04.559Z,5.10
2023-05-04T16:48:06.655Z,5.10
2023-05-04T16:50:09.208Z,5.90
2023-05-04T16:52:10.897Z,4.47
2023-05-04T16:54:18.353Z,5.13
2023-05-04T16:56:19.920Z,5.07
2023-05-04T16:58:25.051Z,4.83
2023-05-04T17:00:36.066Z,5.13
2023-05-04T17:02:37.743Z,5.13
2023-05-04T17:04:39.384Z,4.50
2023-05-04T17:06:43.525Z,5.43
2023-05-04T17:08:45.325Z,5.27
2023-05-04T17:10:48.312Z,5.10
2023-05-04T17:13:00.925Z,5.77
2023-05-04T17:15:08.029Z,5.10
2023-05-04T17:17:13.720Z,5.90
2023-05-04T17:19:15.505Z,4.90
2023-05-04T17:21:17.126Z,5.20
2023-05-04T17:23:18.715Z,4.17
2023-05-04T17:25:20.285Z,5.90
2023-05-04T17:27:23.371Z,4.47
2023-05-04T17:29:28.094Z,4.77
2023-05-04T17:31:29.937Z,4.73
2023-05-04T17:33:33.453Z,5.27
2023-05-04T17:35:35.364Z,6.27
2023-05-04T17:37:36.972Z,4.57
2023-05-04T17:39:38.574Z,4.23
2023-05-04T17:41:40.229Z,5.30
2023-05-04T17:43:43.251Z,5.00
2023-05-04T17:45:54.289Z,4.70
2023-05-04T17:47:57.486Z,4.50
2023-05-04T17:49:59.080Z,4.40
2023-05-04T17:52:00.912Z,4.90
2023-05-04T17:54:02.755Z,5.57
2023-05-04T17:56:04.955Z,4.50
2023-05-04T17:58:06.869Z,4.67
2023-05-04T18:00:11.460Z,5.10
2023-05-04T18:02:13.262Z,5.43
2023-05-04T18:04:15.210Z,4.60
2023-05-04T18:06:16.756Z,5.50
2023-05-04T18:08:18.315Z,5.03
2023-05-04T18:10:21.048Z,4.53
2023-05-04T18:12:26.036Z,5.67
2023-05-04T18:14:29.564Z,5.27
2023-05-04T18:16:32.918Z,4.60
2023-05-04T18:18:35.203Z,6.77
2023-05-04T18:20:37.176Z,5.57
2023-05-04T18:22:38.864Z,6.10
2023-05-04T18:24:40.553Z,5.53
2023-05-04T18:26:42.506Z,6.77
2023-05-04T18:28:44.391Z,4.60
2023-05-04T18:30:46.396Z,4.77
2023-05-04T18:32:49.429Z,5.33
2023-05-04T18:34:51.380Z,4.50
2023-05-04T18:36:53.264Z,4.70
2023-05-04T18:38:54.920Z,4.63
2023-05-04T18:40:56.761Z,5.07
2023-05-04T18:42:58.502Z,4.80
2023-05-04T18:45:01.358Z,4.30
2023-05-04T18:47:03.126Z,4.43
2023-05-04T18:49:07.670Z,4.23
2023-05-04T18:51:09.461Z,4.87
2023-05-04T18:53:15.490Z,5.93
2023-05-04T18:55:19.110Z,5.83
2023-05-04T18:57:20.775Z,6.73
2023-05-04T18:59:22.428Z,5.10
2023-05-04T19:01:24.548Z,5.00
2023-05-04T19:03:26.336Z,5.37
2023-05-04T19:05:31.627Z,5.13
2023-05-04T19:07:35.022Z,5.93
2023-05-04T19:09:36.760Z,5.37
2023-05-04T19:11:38.738Z,7.60
2023-05-04T19:13:42.985Z,6.20
2023-05-04T19:15:45.171Z,5.03
2023-05-04T19:17:47.209Z,5.10
2023-05-04T19:19:49.345Z,6.10
2023-05-04T19:21:52.713Z,5.70
2023-05-04T19:23:54.394Z,7.07
2023-05-04T19:25:56.315Z,5.10
2023-05-04T19:27:58.253Z,6.67
2023-05-04T19:30:00.006Z,5.63
2023-05-04T19:32:12.066Z,5.03
2023-05-04T19:34:18.081Z,4.63
2023-05-04T19:36:20.129Z,4.67
2023-05-04T19:38:25.464Z,4.80
2023-05-04T19:40:27.145Z,5.17
2023-05-04T19:42:28.771Z,5.03
2023-05-04T19:44:32.673Z,7.47
2023-05-04T19:46:34.365Z,5.63
2023-05-04T19:48:38.433Z,5.10
2023-05-04T19:50:40.131Z,4.67
2023-05-04T19:52:42.058Z,4.47
2023-05-04T19:54:47.578Z,4.87
2023-05-04T19:56:49.199Z,4.33
2023-05-04T19:58:51.194Z,5.20
2023-05-04T20:00:53.000Z,5.03
2023-05-04T20:02:55.075Z,4.53
2023-05-04T20:04:56.956Z,5.03
2023-05-04T20:06:59.109Z,7.10
2023-05-04T20:09:00.875Z,5.93
2023-05-04T20:11:06.331Z,5.83
2023-05-04T20:13:08.647Z,5.07
2023-05-04T20:15:10.382Z,5.40
2023-05-04T20:17:13.811Z,5.03
2023-05-04T20:19:17.617Z,4.67
2023-05-04T20:21:19.316Z,5.90
2023-05-04T20:23:21.377Z,7.77
2023-05-04T20:25:23.357Z,10.43
2023-05-04T20:27:26.809Z,6.40
2023-05-04T20:29:28.900Z,7.00
2023-05-04T20:31:30.612Z,4.90
2023-05-04T20:33:32.875Z,5.57
2023-05-04T20:35:34.733Z,4.93
2023-05-04T20:37:36.375Z,4.97
2023-05-04T20:39:38.105Z,5.00
2023-05-04T20:41:39.705Z,5.50
2023-05-04T20:43:42.697Z,4.73
2023-05-04T20:45:44.438Z,4.70
2023-05-04T20:47:46.221Z,4.77
2023-05-04T20:49:49.516Z,4.80
2023-05-04T20:51:51.216Z,4.93
2023-05-04T20:53:52.874Z,5.00
2023-05-04T20:55:54.910Z,6.40
2023-05-04T20:57:57.054Z,6.40
2023-05-04T21:00:01.224Z,8.63
2023-05-04T21:02:03.366Z,12.20
2023-05-04T21:04:05.850Z,13.50
2023-05-04T21:06:08.153Z,13.60
2023-05-04T21:08:12.254Z,22.90
2023-05-04T21:10:13.897Z,14.10
2023-05-04T21:12:15.605Z,7.73
2023-05-04T21:14:18.108Z,7.27
2023-05-04T21:16:21.292Z,7.10
2023-05-04T21:18:23.604Z,5.03
2023-05-04T21:20:25.458Z,5.10
2023-05-04T21:22:27.326Z,5.20
2023-05-04T21:24:28.909Z,9.00
2023-05-04T21:26:30.567Z,7.60
2023-05-04T21:28:32.734Z,7.10
2023-05-04T21:30:34.755Z,18.30
2023-05-04T21:32:38.255Z,9.93
2023-05-04T21:34:39.861Z,6.10
2023-05-04T21:36:42.128Z,5.90
2023-05-04T21:38:43.866Z,9.20
2023-05-04T21:40:45.652Z,13.00
2023-05-04T21:42:48.039Z,8.40
2023-05-04T21:44:53.866Z,8.00
2023-05-04T21:46:56.145Z,10.00
2023-05-04T21:48:59.202Z,7.40
2023-05-04T21:51:01.270Z,7.30
2023-05-04T21:53:03.070Z,7.47
2023-05-04T21:55:05.552Z,5.00
2023-05-04T21:57:07.125Z,5.90
2023-05-04T21:59:08.793Z,5.60
2023-05-04T22:01:15.460Z,5.57
2023-05-04T22:03:17.163Z,6.60
2023-05-04T22:05:21.956Z,5.73
2023-05-04T22:07:23.635Z,6.77
2023-05-04T22:09:26.150Z,6.40
2023-05-04T22:11:27.942Z,5.90
2023-05-04T22:13:29.549Z,6.20
2023-05-04T22:15:38.395Z,7.23
2023-05-04T22:17:48.256Z,6.00
2023-05-04T22:19:49.871Z,6.83
2023-05-04T22:21:52.941Z,6.07
2023-05-04T22:23:54.782Z,5.90
2023-05-04T22:25:56.507Z,6.30
2023-05-04T22:27:58.292Z,6.13
2023-05-04T22:29:59.946Z,6.00
2023-05-04T22:32:01.556Z,4.97
2023-05-04T22:34:03.281Z,6.40
2023-05-04T22:36:05.466Z,6.47
2023-05-04T22:38:08.841Z,6.30
2023-05-04T22:40:11.300Z,6.60
2023-05-04T22:42:13.029Z,6.37
2023-05-04T22:44:14.544Z,6.50
2023-05-04T22:46:17.471Z,6.60
2023-05-04T22:48:19.171Z,6.23
2023-05-04T22:50:21.290Z,6.60
2023-05-04T22:52:23.914Z,6.90
2023-05-04T22:54:27.230Z,6.47
2023-05-04T22:56:28.811Z,6.07
2023-05-04T22:58:30.653Z,6.73
2023-05-04T23:00:32.741Z,6.10
2023-05-04T23:02:34.525Z,6.30
2023-05-04T23:04:36.263Z,6.33
2023-05-04T23:06:38.210Z,7.17
2023-05-04T23:08:39.847Z,6.40
2023-05-04T23:10:46.044Z,6.83
2023-05-04T23:12:47.976Z,6.40
2023-05-04T23:14:50.414Z,6.47
2023-05-04T23:16:52.454Z,6.23
2023-05-04T23:18:54.182Z,6.40
2023-05-04T23:20:55.937Z,6.90
2023-05-04T23:22:57.681Z,6.77
2023-05-04T23:24:59.617Z,6.53
2023-05-04T23:27:03.041Z,6.20
2023-05-04T23:29:05.099Z,6.60
2023-05-04T23:31:07.162Z,7.40
2023-05-04T23:33:09.052Z,7.03
2023-05-04T23:35:10.860Z,6.77
2023-05-04T23:37:12.603Z,6.10
2023-05-04T23:39:14.302Z,7.67
2023-05-04T23:41:17.221Z,7.43
2023-05-04T23:43:21.443Z,7.30
2023-05-04T23:45:23.106Z,6.47
2023-05-04T23:47:24.966Z,6.30
2023-05-04T23:49:26.807Z,6.10
2023-05-04T23:51:28.464Z,7.30
2023-05-04T23:53:30.521Z,7.57
2023-05-04T23:55:31.974Z,6.73
2023-05-04T23:57:33.916Z,7.03
2023-05-04T23:59:36.964Z,7.43
